Aviation Digital Data Service (ADDS)

Output produced by METARs form (1013 UTC 04 December 2016)
found at http://www.aviationweather.gov/adds/metars/
 
KJST 040954Z AUTO 30007KT 10SM BKN029 M01/M03 A3019 RMK AO2 SLP246 T10111033 TSNO
KJST 040917Z AUTO 32005KT 10SM SCT013 OVC028 M01/M03 A3018 RMK AO2 T10111033 TSNO
KJST 040854Z AUTO 31004KT 10SM BKN012 OVC028 M01/M03 A3019 RMK AO2 SLP249 T10111028 58001 TSNO
KJST 040834Z AUTO 30003KT 10SM BKN012 OVC028 M01/M03 A3020 RMK AO2 T10111028 TSNO
KJST 040754Z AUTO 29006KT 10SM FEW012 OVC028 M01/M03 A3020 RMK AO2 SLP252 T10111028 TSNO
KJST 040740Z AUTO 29007KT 10SM FEW013 OVC028 M01/M03 A3020 RMK AO2 T10111028 TSNO
KJST 040730Z AUTO 29007KT 10SM SCT013 OVC030 M01/M03 A3021 RMK AO2 T10111028 TSNO
KJST 040654Z AUTO 29006KT 10SM OVC011 M01/M03 A3020 RMK AO2 SLP252 T10111028 TSNO
KJST 040554Z AUTO 27008KT 10SM OVC011 M01/M03 A3020 RMK AO2 SLP250 T10111028 11006 21011 58001 TSNO
KJST 040454Z AUTO 28007KT 10SM OVC010 M01/M03 A3021 RMK AO2 SLP255 T10061028 400111006 TSNO
KJST 040354Z AUTO 25009KT 10SM OVC011 M01/M03 A3021 RMK AO2 SLP253 T10061028 TSNO
KJST 040254Z AUTO 27007KT 10SM OVC010 M01/M03 A3020 RMK AO2 SLP252 T10061028 53003 TSNO
KJST 040154Z AUTO 26009KT 10SM BKN010 OVC015 M01/M02 A3020 RMK AO2 SLP250 T10061022 TSNO
KJST 040054Z AUTO 27008KT 10SM OVC013 M01/M02 A3019 RMK AO2 SLP247 T10061022 TSNO
KJST 040018Z AUTO 27008KT 10SM BKN013 OVC019 M01/M02 A3019 RMK AO2 T10061022 TSNO
KJST 032354Z AUTO 27009KT 10SM OVC015 M01/M02 A3019 RMK AO2 SLP248 T10061022 10011 21006 55002 TSNO
KJST 032350Z AUTO 26008KT 10SM OVC015 M01/M02 A3019 RMK AO2 TSNO
KJST 032310Z AUTO 29012KT 10SM BKN014 OVC019 00/M02 A3018 RMK AO2 T00001022 TSNO
KJST 032303Z AUTO 27012KT 10SM SCT014 BKN019 OVC026 00/M02 A3019 RMK AO2 T00001022 TSNO
KJST 032254Z AUTO 28011KT 10SM BKN013 OVC019 00/M02 A3019 RMK AO2 SLP247 T00001022 TSNO
KJST 032154Z AUTO 27012KT 10SM BKN011 OVC016 00/M02 A3020 RMK AO2 SLP250 T00001022 TSNO
KJST 032054Z AUTO 28012KT 10SM OVC011 00/M02 A3020 RMK AO2 SLP251 T00001022 53020 TSNO
KJST 031954Z AUTO 27009KT 10SM OVC013 01/M02 A3019 RMK AO2 SLP245 T00061017 TSNO
KJST 031854Z AUTO 28011KT 10SM OVC014 01/M02 A3015 RMK AO2 SLP232 T00111017 TSNO
KJST 031820Z AUTO 28011G16KT 10SM OVC015 01/M02 A3014 RMK AO2 T00111017 TSNO
KJST 031754Z AUTO 29012G18KT 10SM OVC014 01/M02 A3014 RMK AO2 SLP228 T00111017 10011 21006 58014 TSNO
KJST 031654Z AUTO 26009G15KT 230V300 10SM BKN010 OVC014 00/M02 A3017 RMK AO2 CIG 008V013 SLP241 T00001017 TSNO
KJST 031638Z AUTO 26009KT 10SM BKN010 OVC016 00/M02 A3018 RMK AO2 CIG 007V013 T00001017 TSNO
KJST 031554Z AUTO 28012G18KT 10SM OVC007 00/M02 A3019 RMK AO2 SLP248 T00001017 TSNO
KJST 031454Z AUTO 27010G20KT 10SM BKN009 OVC013 M01/M02 A3018 RMK AO2 PK WND 29026/1356 SLP244 T10061017 51017 TSNO
KJST 031354Z AUTO 28016KT 10SM BKN012 OVC020 00/M02 A3016 RMK AO2 PK WND 27029/1308 SLP238 T00001022 TSNO
KJST 031334Z AUTO 28018G23KT 10SM BKN015 OVC020 00/M02 A3016 RMK AO2 PK WND 27029/1308 T00001022 TSNO
KJST 031254Z AUTO 29018KT 10SM BKN012 OVC024 00/M02 A3015 RMK AO2 PK WND 29026/1220 SLP232 T00001022 TSNO
KJST 031154Z AUTO 30018G24KT 10SM BKN014 OVC024 00/M02 A3013 RMK AO2 SLP225 60000 T00001022 10006 21006 51011 TSNO
KJST 031054Z AUTO 29017G24KT 9SM OVC011 M01/M02 A3012 RMK AO2 PK WND 29026/1035 SLP224 T10061022 TSNO
KJST 030954Z AUTO 28016G22KT 10SM OVC012 00/M02 A3011 RMK AO2 PK WND 28027/0929 SLP220 T00001022 TSNO
KJST 030854Z AUTO 28016G24KT 10SM BKN011 OVC016 00/M02 A3009 RMK AO2 UPB01E12 SLP212 P0000 60000 T00001022 50001 TSNO
KJST 030822Z AUTO 28015G24KT 10SM OVC014 00/M02 A3009 RMK AO2 UPB01E12 P0000 T00001022 TSNO
KJST 030754Z AUTO 29015G23KT 10SM OVC015 00/M02 A3010 RMK AO2 PK WND 28027/0658 SLP215 T00001022 TSNO
KJST 030740Z AUTO 29017G25KT 10SM BKN015 OVC022 00/M02 A3010 RMK AO2 PK WND 28027/0658 T00001022 TSNO
KJST 030654Z AUTO 29013G27KT 10SM OVC013 00/M02 A3009 RMK AO2 PK WND 28029/0636 SLP212 T00001017 TSNO
KJST 030554Z AUTO 28017G24KT 10SM OVC011 00/M02 A3009 RMK AO2 UPB0459E18SNE0459B03E11 SLP212 P0000 60000 T00001017 10000 20000 51013 TSNO
KJST 030541Z AUTO 28017G23KT 10SM BKN010 OVC018 00/M02 A3009 RMK AO2 UPB0459E18SNE0459B03E11 P0000 T00001017 TSNO
KJST 030454Z AUTO 28015G21KT 6SM -SN BR OVC007 00/M01 A3008 RMK AO2 UPB03E10SNE03B10 SLP210 P0000 T00001011 400061006 TSNO
KJST 030436Z AUTO 28019G24KT 2SM -SN BR OVC008 00/M01 A3008 RMK AO2 UPB03E10SNE03B10 P0000 T00001011 TSNO
KJST 030407Z AUTO 28013G22KT 7SM UP OVC009 00/M02 A3006 RMK AO2 UPB03SNE03 P0000 T00001017 TSNO
KJST 030354Z AUTO 28016G26KT 8SM -SN OVC010 00/M02 A3006 RMK AO2 PK WND 27026/0352 UPB29E54SNB54 SLP203 P0000 T00001017 TSNO
KJST 030254Z AUTO 27020G31KT 10SM OVC012 00/M02 A3005 RMK AO2 PK WND 26031/0253 UPB03E33 SLP199 P0000 60000 T00001017 53013 TSNO
KJST 030215Z AUTO 27015G22KT 10SM UP OVC009 00/M02 A3004 RMK AO2 UPB03 P0000 T00001017 TSNO
KJST 030154Z AUTO 28013G23KT 10SM OVC010 00/M02 A3003 RMK AO2 SLP192 T00001017 TSNO
KJST 030054Z AUTO 27013G22KT 10SM OVC012 00/M02 A3002 RMK AO2 PK WND 28026/0033 SLP189 T00001022 TSNO
KJST 022354Z AUTO 27017G24KT 10SM OVC012 00/M02 A3001 RMK AO2 PK WND 27030/2310 SLP185 T00001022 10006 20000 53008 TSNO
KJST 022254Z AUTO 26013G24KT 10SM BKN011 OVC016 00/M02 A3000 RMK AO2 SLP181 T00001017 TSNO
KJST 022227Z AUTO 26014G25KT 10SM BKN013 BKN018 OVC041 00/M02 A3000 RMK AO2 T00001022 TSNO